Time;durP1;ratioP1;P1;durP2;ratioP2;P2;SDS_P1;SDS_P2;PMS_P1;PMS_P2;Temp;Humidity;BMP_temperature;BMP_pressure;BME280_temperature;BME280_humidity;BME280_pressure;Samples;Min_cycle;Max_cycle;Signal;HPM_P1;HPM_P2
2023/06/22 00:00:32;;;;;;;4.60;3.55;;;;;;;;;;5108989;28;20027;-78
2023/06/22 00:02:58;;;;;;;3.78;3.03;;;;;;;;;;5098861;28;20059;-78
2023/06/22 00:05:24;;;;;;;9.23;3.03;;;;;;;;;;5114187;28;20056;-78
2023/06/22 00:07:50;;;;;;;8.10;3.17;;;;;;;;;;5100161;28;20036;-78
2023/06/22 00:10:17;;;;;;;5.72;3.35;;;;;;;;;;5113189;28;20168;-78
2023/06/22 00:12:43;;;;;;;6.15;3.47;;;;;;;;;;5118468;28;20028;-78
2023/06/22 00:15:09;;;;;;;6.07;3.08;;;;;;;;;;5102577;28;20027;-78
2023/06/22 00:17:35;;;;;;;4.50;3.00;;;;;;;;;;5108156;28;20035;-80
2023/06/22 00:20:02;;;;;;;3.60;3.30;;;;;;;;;;5126268;28;20028;-78
2023/06/22 00:22:30;;;;;;;5.90;3.58;;;;;;;;;;5119602;28;20026;-78
2023/06/22 00:24:57;;;;;;;4.28;3.00;;;;;;;;;;5114745;28;20039;-77
2023/06/22 00:27:23;;;;;;;4.45;3.03;;;;;;;;;;5112231;27;20389;-78
2023/06/22 00:29:49;;;;;;;6.57;3.60;;;;;;;;;;5105572;28;20033;-77
2023/06/22 00:32:17;;;;;;;4.15;3.30;;;;;;;;;;5102345;28;20032;-77
2023/06/22 00:34:43;;;;;;;3.85;3.20;;;;;;;;;;5109258;28;20075;-78
2023/06/22 00:37:11;;;;;;;3.75;3.35;;;;;;;;;;5108489;28;20027;-77
2023/06/22 00:39:37;;;;;;;4.03;3.03;;;;;;;;;;5091937;28;20016;-77
2023/06/22 00:42:03;;;;;;;5.07;3.33;;;;;;;;;;5102706;28;20020;-77
2023/06/22 00:44:29;;;;;;;4.25;2.92;;;;;;;;;;5110974;28;20051;-77
2023/06/22 00:46:55;;;;;;;5.65;3.63;;;;;;;;;;5104028;28;20065;-78
2023/06/22 00:49:21;;;;;;;4.80;3.38;;;;;;;;;;5104056;28;20038;-77
2023/06/22 00:51:48;;;;;;;5.38;3.30;;;;;;;;;;5106412;28;20020;-78
2023/06/22 00:54:15;;;;;;;6.47;3.30;;;;;;;;;;5108109;28;20106;-78
2023/06/22 00:56:45;;;;;;;4.47;3.33;;;;;;;;;;5107813;28;20119;-77
2023/06/22 00:59:12;;;;;;;5.35;3.20;;;;;;;;;;5112377;28;20024;-79
2023/06/22 01:01:41;;;;;;;5.90;3.28;;;;;;;;;;5093769;28;20373;-78
2023/06/22 01:04:07;;;;;;;4.22;3.15;;;;;;;;;;5095883;28;20019;-77
2023/06/22 01:06:39;;;;;;;4.18;3.30;;;;;;;;;;5107951;28;20108;-78
2023/06/22 01:09:23;;;;;;;4.88;3.75;;;;;;;;;;5108935;28;20053;-78
2023/06/22 01:11:54;;;;;;;5.13;3.55;;;;;;;;;;5101368;28;20027;-78
2023/06/22 01:14:24;;;;;;;6.22;3.55;;;;;;;;;;5106797;28;20445;-78
2023/06/22 01:16:52;;;;;;;4.28;3.30;;;;;;;;;;5110079;27;20024;-78
2023/06/22 01:19:18;;;;;;;5.75;3.92;;;;;;;;;;5104063;28;20438;-77
2023/06/22 01:21:44;;;;;;;4.32;3.55;;;;;;;;;;5087664;28;20028;-77
2023/06/22 01:24:16;;;;;;;7.32;3.30;;;;;;;;;;5105419;28;20055;-77
2023/06/22 01:26:44;;;;;;;4.80;3.33;;;;;;;;;;5097400;28;20058;-78
2023/06/22 01:29:13;;;;;;;6.07;4.18;;;;;;;;;;5110340;28;20513;-78
2023/06/22 01:31:40;;;;;;;4.68;3.25;;;;;;;;;;5084890;27;20027;-78
2023/06/22 01:34:07;;;;;;;5.10;3.28;;;;;;;;;;5107216;28;20024;-77
2023/06/22 01:36:34;;;;;;;4.78;3.70;;;;;;;;;;5091303;28;20024;-77
2023/06/22 01:39:00;;;;;;;5.22;3.67;;;;;;;;;;5103327;28;20089;-78
2023/06/22 01:41:27;;;;;;;5.78;4.05;;;;;;;;;;5098357;28;20548;-77
2023/06/22 01:43:54;;;;;;;6.25;3.80;;;;;;;;;;5097355;28;20039;-77
2023/06/22 01:46:21;;;;;;;7.85;4.07;;;;;;;;;;5102898;28;20032;-77
2023/06/22 01:48:47;;;;;;;6.82;3.70;;;;;;;;;;5108128;28;20027;-78
2023/06/22 01:51:14;;;;;;;4.43;4.00;;;;;;;;;;5104219;28;20099;-77
2023/06/22 01:53:40;;;;;;;4.45;3.70;;;;;;;;;;5098157;28;20079;-77
2023/06/22 01:56:06;;;;;;;6.38;3.80;;;;;;;;;;5106796;28;20023;-77
2023/06/22 01:58:33;;;;;;;4.47;3.40;;;;;;;;;;5113212;28;20100;-78
2023/06/22 02:01:03;;;;;;;6.05;3.40;;;;;;;;;;5103185;28;20023;-77
2023/06/22 02:03:33;;;;;;;7.15;3.45;;;;;;;;;;5099788;28;20040;-77
2023/06/22 02:06:04;;;;;;;5.97;3.42;;;;;;;;;;5099882;28;20024;-77
2023/06/22 02:08:31;;;;;;;5.80;3.53;;;;;;;;;;5089936;28;20079;-77
2023/06/22 02:10:58;;;;;;;5.55;3.80;;;;;;;;;;5102223;28;20554;-77
2023/06/22 02:13:25;;;;;;;5.45;3.70;;;;;;;;;;5093827;28;20073;-78
2023/06/22 02:15:51;;;;;;;7.47;3.50;;;;;;;;;;5112336;28;20545;-77
2023/06/22 02:18:18;;;;;;;4.15;3.60;;;;;;;;;;5105310;28;20039;-78
2023/06/22 02:20:44;;;;;;;4.35;3.95;;;;;;;;;;5098877;28;20032;-78
2023/06/22 02:23:10;;;;;;;6.40;3.92;;;;;;;;;;5105122;28;20051;-77
2023/06/22 02:25:36;;;;;;;5.53;3.72;;;;;;;;;;5085028;28;20362;-78
2023/06/22 02:28:02;;;;;;;4.97;3.80;;;;;;;;;;5092093;28;20024;-78
2023/06/22 02:30:28;;;;;;;5.15;3.47;;;;;;;;;;5098976;28;20032;-77
2023/06/22 02:32:58;;;;;;;6.35;3.60;;;;;;;;;;5100903;28;20023;-78
2023/06/22 02:35:31;;;;;;;5.70;3.95;;;;;;;;;;5102224;28;20032;-78
2023/06/22 02:37:59;;;;;;;4.68;3.70;;;;;;;;;;5112214;28;20031;-77
2023/06/22 02:40:25;;;;;;;4.93;3.72;;;;;;;;;;5105772;28;20039;-77
2023/06/22 02:42:51;;;;;;;6.38;4.25;;;;;;;;;;5103158;28;20847;-77
2023/06/22 02:45:17;;;;;;;5.32;4.68;;;;;;;;;;5112051;28;20031;-77
2023/06/22 02:47:44;;;;;;;4.32;3.42;;;;;;;;;;5104156;28;20115;-77
2023/06/22 02:50:10;;;;;;;6.55;4.25;;;;;;;;;;5102617;28;20028;-78
2023/06/22 02:52:36;;;;;;;8.52;4.05;;;;;;;;;;5106101;28;20024;-78
2023/06/22 02:55:02;;;;;;;5.63;4.10;;;;;;;;;;5110452;28;20027;-78
2023/06/22 02:57:28;;;;;;;6.65;4.40;;;;;;;;;;5106230;28;20056;-78
2023/06/22 02:59:55;;;;;;;6.38;4.20;;;;;;;;;;5103744;28;20098;-79
2023/06/22 03:02:21;;;;;;;8.32;4.30;;;;;;;;;;5087251;28;20027;-78
2023/06/22 03:04:53;;;;;;;8.52;4.47;;;;;;;;;;5097691;28;20031;-78
2023/06/22 03:07:23;;;;;;;7.00;4.57;;;;;;;;;;5095309;28;20024;-78
2023/06/22 03:09:50;;;;;;;7.22;4.47;;;;;;;;;;5087529;28;20024;-78
2023/06/22 03:12:16;;;;;;;8.90;5.10;;;;;;;;;;5101533;28;20544;-77
2023/06/22 03:14:42;;;;;;;5.75;4.82;;;;;;;;;;5095108;28;20042;-78
2023/06/22 03:17:08;;;;;;;7.47;4.63;;;;;;;;;;5103237;28;20027;-78
2023/06/22 03:19:35;;;;;;;6.72;4.68;;;;;;;;;;5100953;28;20024;-78
2023/06/22 03:22:01;;;;;;;6.75;4.85;;;;;;;;;;5099532;28;20132;-77
2023/06/22 03:24:30;;;;;;;8.93;5.10;;;;;;;;;;5096643;28;20053;-77
2023/06/22 03:26:56;;;;;;;6.65;5.07;;;;;;;;;;5104538;28;20344;-77
2023/06/22 03:29:23;;;;;;;6.85;4.97;;;;;;;;;;5100443;28;20023;-77
2023/06/22 03:31:53;;;;;;;8.38;4.53;;;;;;;;;;5115017;28;20031;-77
2023/06/22 03:34:19;;;;;;;6.55;4.78;;;;;;;;;;5103148;28;20023;-78
2023/06/22 03:36:45;;;;;;;6.63;4.72;;;;;;;;;;5098024;28;20048;-76
2023/06/22 03:39:11;;;;;;;7.40;4.93;;;;;;;;;;5107986;28;20077;-77
2023/06/22 03:41:38;;;;;;;7.03;4.95;;;;;;;;;;5095614;28;20034;-77
2023/06/22 03:44:04;;;;;;;7.22;4.82;;;;;;;;;;5107325;28;20072;-77
2023/06/22 03:46:30;;;;;;;6.63;4.50;;;;;;;;;;5114035;28;20071;-77
2023/06/22 03:48:56;;;;;;;8.18;4.25;;;;;;;;;;5114968;28;20035;-78
2023/06/22 03:51:22;;;;;;;9.38;4.38;;;;;;;;;;5117934;28;20080;-77
2023/06/22 03:53:48;;;;;;;13.48;6.55;;;;;;;;;;5106895;28;20042;-77
2023/06/22 03:56:20;;;;;;;8.68;5.28;;;;;;;;;;5111433;28;20039;-77
2023/06/22 03:58:46;;;;;;;8.60;5.20;;;;;;;;;;5106975;28;20031;-79
2023/06/22 04:01:12;;;;;;;7.47;4.88;;;;;;;;;;5098712;28;20123;-77
2023/06/22 04:03:38;;;;;;;7.75;4.90;;;;;;;;;;5104481;28;20143;-77
2023/06/22 04:06:04;;;;;;;7.15;5.03;;;;;;;;;;5101351;28;20058;-77
2023/06/22 04:08:31;;;;;;;7.13;4.97;;;;;;;;;;5092909;28;20059;-77
2023/06/22 04:10:57;;;;;;;8.80;5.43;;;;;;;;;;5099578;28;20031;-78
2023/06/22 04:13:23;;;;;;;7.22;4.82;;;;;;;;;;5108427;28;20685;-78
2023/06/22 04:15:49;;;;;;;8.13;5.18;;;;;;;;;;5105220;28;20043;-76
2023/06/22 04:18:16;;;;;;;7.30;5.10;;;;;;;;;;5111520;28;20455;-78
2023/06/22 04:20:42;;;;;;;5.75;4.68;;;;;;;;;;5092103;28;20678;-78
2023/06/22 04:23:08;;;;;;;5.93;4.72;;;;;;;;;;5112649;28;20101;-77
2023/06/22 04:25:34;;;;;;;6.68;5.30;;;;;;;;;;5109374;28;20039;-78
2023/06/22 04:28:03;;;;;;;6.95;4.65;;;;;;;;;;5109284;28;20086;-77
2023/06/22 04:30:31;;;;;;;7.85;4.95;;;;;;;;;;5110161;28;20028;-77
2023/06/22 04:32:57;;;;;;;8.20;5.53;;;;;;;;;;5105915;28;20044;-79
2023/06/22 04:35:24;;;;;;;8.52;4.90;;;;;;;;;;5103301;28;20083;-78
2023/06/22 04:37:54;;;;;;;5.05;4.50;;;;;;;;;;5111337;28;20042;-77
2023/06/22 04:40:21;;;;;;;8.98;4.60;;;;;;;;;;5086457;28;20036;-78
2023/06/22 04:42:52;;;;;;;6.75;4.55;;;;;;;;;;5106173;28;20107;-78
2023/06/22 04:45:18;;;;;;;8.52;4.13;;;;;;;;;;5103569;28;20028;-77
2023/06/22 04:47:45;;;;;;;5.85;4.32;;;;;;;;;;5102924;28;20046;-79
2023/06/22 04:50:11;;;;;;;7.32;4.28;;;;;;;;;;5098938;28;20030;-78
2023/06/22 04:52:38;;;;;;;6.45;4.78;;;;;;;;;;5110005;28;20031;-78
2023/06/22 04:55:04;;;;;;;9.02;6.22;;;;;;;;;;5098963;28;20059;-77
2023/06/22 04:57:34;;;;;;;6.72;5.05;;;;;;;;;;5101591;28;20047;-78
2023/06/22 05:00:16;;;;;;;8.00;5.43;;;;;;;;;;5100586;28;20058;-79
2023/06/22 05:02:43;;;;;;;10.60;6.43;;;;;;;;;;5094626;28;20032;-77
2023/06/22 05:05:13;;;;;;;9.73;5.85;;;;;;;;;;5106056;28;20023;-79
2023/06/22 05:07:42;;;;;;;8.25;6.13;;;;;;;;;;5099888;28;20210;-78
2023/06/22 05:10:09;;;;;;;10.25;5.80;;;;;;;;;;5092893;28;20489;-78
2023/06/22 05:12:35;;;;;;;13.95;7.30;;;;;;;;;;5106015;28;20028;-77
2023/06/22 05:15:01;;;;;;;9.98;6.20;;;;;;;;;;5109471;28;20103;-78
2023/06/22 05:17:27;;;;;;;9.18;6.47;;;;;;;;;;5101649;28;20052;-78
2023/06/22 05:19:54;;;;;;;9.15;6.13;;;;;;;;;;5104533;28;20024;-79
2023/06/22 05:22:21;;;;;;;9.10;6.07;;;;;;;;;;5100639;28;20035;-78
2023/06/22 05:24:47;;;;;;;9.23;5.75;;;;;;;;;;5106589;27;20028;-78
2023/06/22 05:27:14;;;;;;;8.75;6.03;;;;;;;;;;5104106;28;20394;-78
2023/06/22 05:29:40;;;;;;;9.00;5.25;;;;;;;;;;5100528;28;20039;-79
2023/06/22 05:32:07;;;;;;;7.95;5.63;;;;;;;;;;5106447;28;20020;-78
2023/06/22 05:34:33;;;;;;;8.35;5.60;;;;;;;;;;5099630;28;20051;-78
2023/06/22 05:36:59;;;;;;;8.52;6.13;;;;;;;;;;5103382;28;20028;-79
2023/06/22 05:39:25;;;;;;;8.23;5.32;;;;;;;;;;5106318;28;20044;-78
2023/06/22 05:41:52;;;;;;;9.20;5.53;;;;;;;;;;5104718;28;20039;-78
2023/06/22 05:44:18;;;;;;;10.77;7.15;;;;;;;;;;5101653;28;20093;-78
2023/06/22 05:46:46;;;;;;;11.70;6.90;;;;;;;;;;5103528;28;20054;-78
2023/06/22 05:49:16;;;;;;;10.35;6.60;;;;;;;;;;5099100;28;20120;-78
2023/06/22 05:51:42;;;;;;;13.63;7.30;;;;;;;;;;5088616;28;20028;-79
2023/06/22 05:54:09;;;;;;;10.07;6.63;;;;;;;;;;5102229;28;20024;-78
2023/06/22 05:56:35;;;;;;;11.70;7.82;;;;;;;;;;5098970;28;20031;-79
2023/06/22 05:59:01;;;;;;;10.23;6.25;;;;;;;;;;5098737;28;20054;-78
2023/06/22 06:01:27;;;;;;;9.73;6.35;;;;;;;;;;5102493;28;20031;-77
2023/06/22 06:03:53;;;;;;;9.95;6.07;;;;;;;;;;5102828;28;20479;-78
2023/06/22 06:06:28;;;;;;;11.40;6.93;;;;;;;;;;5110585;28;20031;-77
2023/06/22 06:08:54;;;;;;;11.57;6.05;;;;;;;;;;5104135;28;20064;-77
2023/06/22 06:11:20;;;;;;;9.50;6.30;;;;;;;;;;5104778;28;20032;-77
2023/06/22 06:13:46;;;;;;;10.48;7.28;;;;;;;;;;5105298;28;20024;-77
2023/06/22 06:16:13;;;;;;;9.57;6.30;;;;;;;;;;5103807;28;20114;-78
2023/06/22 06:18:40;;;;;;;9.80;6.70;;;;;;;;;;5100520;28;20125;-78
2023/06/22 06:21:06;;;;;;;9.80;7.28;;;;;;;;;;5108128;28;20024;-78
2023/06/22 06:23:32;;;;;;;13.95;6.80;;;;;;;;;;5086859;28;20024;-78
2023/06/22 06:26:01;;;;;;;10.98;6.70;;;;;;;;;;5106165;28;20066;-78
2023/06/22 06:28:27;;;;;;;12.82;6.53;;;;;;;;;;5087711;28;20134;-78
2023/06/22 06:30:53;;;;;;;11.05;6.93;;;;;;;;;;5097989;28;20604;-79
2023/06/22 06:33:20;;;;;;;12.93;6.28;;;;;;;;;;5101809;28;20097;-78
2023/06/22 06:35:47;;;;;;;10.40;6.68;;;;;;;;;;5084803;28;20093;-78
2023/06/22 06:38:13;;;;;;;10.73;7.22;;;;;;;;;;5102222;28;20040;-78
2023/06/22 06:40:39;;;;;;;10.30;7.15;;;;;;;;;;5095950;28;20046;-78
2023/06/22 06:43:05;;;;;;;11.98;7.72;;;;;;;;;;5097209;28;20028;-78
2023/06/22 06:45:34;;;;;;;10.25;7.38;;;;;;;;;;5101468;28;20081;-78
2023/06/22 06:48:00;;;;;;;12.27;7.32;;;;;;;;;;5101022;28;20024;-77
2023/06/22 06:50:26;;;;;;;10.80;6.50;;;;;;;;;;5097930;28;20016;-79
2023/06/22 06:52:52;;;;;;;10.88;7.38;;;;;;;;;;5100098;28;20035;-78
2023/06/22 06:55:20;;;;;;;11.73;6.00;;;;;;;;;;5099089;28;20106;-78
2023/06/22 06:57:48;;;;;;;10.13;6.38;;;;;;;;;;5101165;28;20625;-78
2023/06/22 07:00:15;;;;;;;9.20;6.15;;;;;;;;;;5098751;28;20045;-78
2023/06/22 07:02:42;;;;;;;9.48;6.18;;;;;;;;;;5105342;28;20065;-78
2023/06/22 07:05:09;;;;;;;9.65;6.20;;;;;;;;;;5102876;28;20027;-77
2023/06/22 07:07:42;;;;;;;11.48;5.93;;;;;;;;;;5099500;28;20150;-79
2023/06/22 07:10:08;;;;;;;9.85;5.97;;;;;;;;;;5100586;28;20486;-78
2023/06/22 07:12:34;;;;;;;9.52;6.55;;;;;;;;;;5103697;28;20031;-77
2023/06/22 07:15:11;;;;;;;12.85;6.40;;;;;;;;;;5109518;28;20040;-78
2023/06/22 07:17:40;;;;;;;11.13;7.10;;;;;;;;;;5121996;28;20069;-78
2023/06/22 07:20:08;;;;;;;12.77;6.35;;;;;;;;;;5099514;28;20031;-77
2023/06/22 07:22:34;;;;;;;8.02;6.75;;;;;;;;;;5092961;28;20024;-77
2023/06/22 07:25:01;;;;;;;7.88;5.78;;;;;;;;;;5106016;28;20066;-77
2023/06/22 07:27:27;;;;;;;11.18;6.43;;;;;;;;;;5108604;28;20031;-77
2023/06/22 07:29:55;;;;;;;11.10;6.57;;;;;;;;;;5104433;28;20051;-77
2023/06/22 07:32:21;;;;;;;8.80;6.47;;;;;;;;;;5101435;28;20109;-77
2023/06/22 07:34:47;;;;;;;13.95;5.88;;;;;;;;;;5103803;28;20034;-78
2023/06/22 07:37:13;;;;;;;8.18;6.40;;;;;;;;;;5104218;28;20032;-77
2023/06/22 07:39:39;;;;;;;9.27;6.03;;;;;;;;;;5101019;28;20035;-78
2023/06/22 07:42:05;;;;;;;7.55;5.53;;;;;;;;;;5090582;28;20020;-78
2023/06/22 07:44:31;;;;;;;6.88;5.60;;;;;;;;;;5105777;28;20054;-77
2023/06/22 07:47:01;;;;;;;6.60;5.60;;;;;;;;;;5097165;27;20030;-78
2023/06/22 07:49:29;;;;;;;6.68;5.75;;;;;;;;;;5107979;28;20554;-78
2023/06/22 07:51:55;;;;;;;6.47;5.38;;;;;;;;;;5099603;28;20121;-81
2023/06/22 07:54:21;;;;;;;8.05;5.50;;;;;;;;;;5101821;28;20032;-81
2023/06/22 07:56:50;;;;;;;8.55;5.45;;;;;;;;;;5102416;28;20485;-81
2023/06/22 07:59:19;;;;;;;6.82;5.25;;;;;;;;;;5103671;27;20028;-79
2023/06/22 08:01:48;;;;;;;7.80;5.18;;;;;;;;;;5112437;28;20032;-81
2023/06/22 08:04:15;;;;;;;7.05;5.32;;;;;;;;;;5103270;28;20023;-80
2023/06/22 08:06:42;;;;;;;10.95;6.50;;;;;;;;;;5108438;28;20028;-78
2023/06/22 08:09:08;;;;;;;8.43;5.07;;;;;;;;;;5084024;28;20035;-79
2023/06/22 08:11:34;;;;;;;9.05;5.65;;;;;;;;;;5082817;28;20027;-79
2023/06/22 08:14:01;;;;;;;8.82;5.47;;;;;;;;;;5077130;28;20918;-83
2023/06/22 08:16:27;;;;;;;7.82;5.47;;;;;;;;;;5101637;28;20024;-84
2023/06/22 08:18:54;;;;;;;6.32;5.55;;;;;;;;;;5080713;28;20024;-80
2023/06/22 08:21:20;;;;;;;9.52;4.97;;;;;;;;;;5094378;28;20042;-79
2023/06/22 08:23:47;;;;;;;11.65;5.18;;;;;;;;;;5092110;28;20455;-79
2023/06/22 08:26:13;;;;;;;6.20;5.03;;;;;;;;;;5093877;28;20036;-78
2023/06/22 08:28:39;;;;;;;6.70;5.15;;;;;;;;;;5093211;28;20944;-77
2023/06/22 08:31:05;;;;;;;6.25;4.40;;;;;;;;;;5084280;28;20020;-78
2023/06/22 08:33:31;;;;;;;7.80;4.80;;;;;;;;;;5095273;27;20035;-79
2023/06/22 08:35:59;;;;;;;7.75;4.40;;;;;;;;;;5067789;28;20035;-79
2023/06/22 08:38:25;;;;;;;6.65;4.63;;;;;;;;;;5066470;28;20487;-79
2023/06/22 08:40:51;;;;;;;8.63;5.45;;;;;;;;;;5088172;28;20270;-77
2023/06/22 08:43:17;;;;;;;7.47;4.68;;;;;;;;;;5088439;28;20028;-77
2023/06/22 08:45:43;;;;;;;5.80;4.78;;;;;;;;;;5086786;28;20032;-77
2023/06/22 08:48:09;;;;;;;6.00;4.60;;;;;;;;;;5088637;28;20035;-77
2023/06/22 08:50:35;;;;;;;6.20;4.25;;;;;;;;;;5087231;28;20051;-77
2023/06/22 08:53:01;;;;;;;5.95;4.88;;;;;;;;;;5088352;28;20070;-77
2023/06/22 08:55:27;;;;;;;6.88;4.28;;;;;;;;;;5089159;28;20035;-77
2023/06/22 08:57:54;;;;;;;7.90;4.40;;;;;;;;;;5087368;28;20058;-77
2023/06/22 09:00:21;;;;;;;5.88;3.63;;;;;;;;;;5089451;28;20031;-77
2023/06/22 09:02:47;;;;;;;4.75;4.13;;;;;;;;;;5090473;28;20038;-78
2023/06/22 09:05:13;;;;;;;7.50;4.35;;;;;;;;;;5086165;28;20039;-79
2023/06/22 09:07:40;;;;;;;5.18;3.65;;;;;;;;;;5085075;28;20058;-77
2023/06/22 09:10:06;;;;;;;6.03;4.10;;;;;;;;;;5087000;28;20035;-78
2023/06/22 09:12:33;;;;;;;5.28;3.92;;;;;;;;;;5089930;28;20466;-79
2023/06/22 09:15:03;;;;;;;5.90;4.25;;;;;;;;;;5087636;28;20028;-78
2023/06/22 09:17:29;;;;;;;4.25;3.55;;;;;;;;;;5087589;28;20668;-79
2023/06/22 09:19:55;;;;;;;4.78;3.30;;;;;;;;;;5085678;28;20494;-80
2023/06/22 09:22:21;;;;;;;4.45;3.25;;;;;;;;;;5085162;28;20103;-78
2023/06/22 09:24:47;;;;;;;3.88;3.38;;;;;;;;;;5085514;27;21588;-78
2023/06/22 09:27:14;;;;;;;6.18;3.35;;;;;;;;;;5087477;28;20032;-81
2023/06/22 09:29:40;;;;;;;3.88;3.40;;;;;;;;;;5086765;28;20800;-78
2023/06/22 09:32:06;;;;;;;3.72;3.22;;;;;;;;;;5086351;28;20143;-78
2023/06/22 09:34:32;;;;;;;4.25;3.25;;;;;;;;;;5084320;28;20035;-77
2023/06/22 09:37:00;;;;;;;3.88;3.17;;;;;;;;;;5066688;28;20023;-77
2023/06/22 09:39:26;;;;;;;6.80;3.40;;;;;;;;;;5086560;28;20497;-82
2023/06/22 09:41:52;;;;;;;4.07;3.00;;;;;;;;;;5090708;28;20099;-80
2023/06/22 09:44:19;;;;;;;4.35;3.08;;;;;;;;;;5089028;28;20036;-79
2023/06/22 09:46:45;;;;;;;4.45;3.28;;;;;;;;;;5088279;28;20697;-81
2023/06/22 09:49:11;;;;;;;10.77;3.67;;;;;;;;;;5087250;28;20031;-80
2023/06/22 09:51:37;;;;;;;3.90;3.33;;;;;;;;;;5088503;28;20524;-80
2023/06/22 09:54:03;;;;;;;3.70;3.30;;;;;;;;;;5087419;28;20028;-78
2023/06/22 09:56:30;;;;;;;4.40;3.30;;;;;;;;;;5087852;28;20085;-85
2023/06/22 09:58:56;;;;;;;4.03;3.33;;;;;;;;;;5088273;28;20020;-80
2023/06/22 10:01:23;;;;;;;5.80;3.20;;;;;;;;;;5086582;28;20105;-79
2023/06/22 10:03:49;;;;;;;5.55;3.83;;;;;;;;;;5084380;28;20023;-80
2023/06/22 10:06:15;;;;;;;4.95;3.00;;;;;;;;;;5089653;28;20147;-82
2023/06/22 10:08:41;;;;;;;3.92;3.35;;;;;;;;;;5089124;28;20036;-79
2023/06/22 10:11:08;;;;;;;4.05;3.30;;;;;;;;;;5086574;28;20040;-79
2023/06/22 10:13:34;;;;;;;3.42;3.13;;;;;;;;;;5087708;28;20121;-78
2023/06/22 10:16:00;;;;;;;3.67;3.17;;;;;;;;;;5088092;28;20028;-81
2023/06/22 10:18:26;;;;;;;3.58;3.25;;;;;;;;;;5086823;28;20059;-79
2023/06/22 10:20:52;;;;;;;5.30;3.33;;;;;;;;;;5086914;28;20036;-82
2023/06/22 10:23:19;;;;;;;4.68;2.85;;;;;;;;;;5088062;28;20032;-80
2023/06/22 10:25:45;;;;;;;3.65;3.05;;;;;;;;;;5091635;28;20030;-77
2023/06/22 10:28:12;;;;;;;3.38;3.00;;;;;;;;;;5101740;28;20023;-79
2023/06/22 10:30:41;;;;;;;4.25;3.20;;;;;;;;;;5107443;28;20422;-82
2023/06/22 10:33:07;;;;;;;3.30;2.90;;;;;;;;;;5105241;28;20028;-78
2023/06/22 10:35:33;;;;;;;3.20;2.90;;;;;;;;;;5098881;28;20061;-78
2023/06/22 10:38:00;;;;;;;3.00;2.70;;;;;;;;;;5089962;28;20392;-79
2023/06/22 10:40:26;;;;;;;4.60;2.95;;;;;;;;;;5090294;28;20053;-78
2023/06/22 10:42:52;;;;;;;5.72;3.13;;;;;;;;;;5087550;28;20084;-78
2023/06/22 10:45:18;;;;;;;4.25;3.10;;;;;;;;;;5086122;28;20032;-81
2023/06/22 10:47:44;;;;;;;4.72;3.17;;;;;;;;;;5089805;28;20064;-80
2023/06/22 10:50:11;;;;;;;3.42;2.92;;;;;;;;;;5097759;28;20366;-79
2023/06/22 10:52:37;;;;;;;3.55;2.80;;;;;;;;;;5077406;28;20059;-79
2023/06/22 10:55:03;;;;;;;3.15;2.70;;;;;;;;;;5096889;28;20057;-78
2023/06/22 10:57:29;;;;;;;4.85;3.40;;;;;;;;;;5093379;28;20477;-79
2023/06/22 10:59:56;;;;;;;4.35;2.95;;;;;;;;;;5090862;28;20134;-80
2023/06/22 11:02:22;;;;;;;3.50;2.90;;;;;;;;;;5088729;28;20036;-79
2023/06/22 11:04:48;;;;;;;4.05;3.10;;;;;;;;;;5084143;28;20032;-81
2023/06/22 11:07:14;;;;;;;4.10;3.40;;;;;;;;;;5082579;28;20098;-78
2023/06/22 11:09:40;;;;;;;3.72;3.10;;;;;;;;;;5086362;28;20060;-79
2023/06/22 11:12:07;;;;;;;4.72;3.10;;;;;;;;;;5084985;28;20199;-78
2023/06/22 11:14:33;;;;;;;4.57;3.80;;;;;;;;;;5059438;28;20032;-82
2023/06/22 11:16:59;;;;;;;3.40;2.70;;;;;;;;;;5081884;28;20126;-81
2023/06/22 11:19:25;;;;;;;4.43;2.78;;;;;;;;;;5087189;28;20028;-78
2023/06/22 11:21:51;;;;;;;3.40;3.10;;;;;;;;;;5088675;28;20051;-79
2023/06/22 11:24:18;;;;;;;3.00;2.40;;;;;;;;;;5097159;28;20053;-80
2023/06/22 11:26:44;;;;;;;3.38;2.90;;;;;;;;;;5098030;28;20097;-78
2023/06/22 11:29:10;;;;;;;3.65;2.70;;;;;;;;;;5095498;28;20489;-80
2023/06/22 11:31:37;;;;;;;5.10;3.00;;;;;;;;;;5096865;28;20028;-81
2023/06/22 11:34:04;;;;;;;4.22;2.83;;;;;;;;;;5098392;28;20110;-80
2023/06/22 11:36:32;;;;;;;4.95;3.25;;;;;;;;;;5098780;28;20442;-81
2023/06/22 11:38:59;;;;;;;3.97;2.70;;;;;;;;;;5099869;28;20050;-79
2023/06/22 11:41:25;;;;;;;3.83;2.88;;;;;;;;;;5100835;28;20024;-80
2023/06/22 11:43:51;;;;;;;5.75;3.47;;;;;;;;;;5081597;28;20045;-78
2023/06/22 11:46:17;;;;;;;3.63;2.83;;;;;;;;;;5095256;28;20028;-79
2023/06/22 11:48:43;;;;;;;2.78;2.47;;;;;;;;;;5097967;28;20027;-79
2023/06/22 11:51:09;;;;;;;4.00;3.15;;;;;;;;;;5095940;28;20035;-79
2023/06/22 11:53:35;;;;;;;3.88;2.97;;;;;;;;;;5098120;28;20569;-78
2023/06/22 11:56:01;;;;;;;3.60;2.70;;;;;;;;;;5097744;28;20036;-78
2023/06/22 11:58:28;;;;;;;3.30;2.83;;;;;;;;;;5097459;28;20033;-79
2023/06/22 12:00:54;;;;;;;4.15;2.95;;;;;;;;;;5094620;28;20046;-78
2023/06/22 12:03:21;;;;;;;3.28;2.70;;;;;;;;;;5095414;28;20016;-80
2023/06/22 12:05:47;;;;;;;4.40;3.15;;;;;;;;;;5098022;28;20024;-78
2023/06/22 12:08:13;;;;;;;4.43;2.60;;;;;;;;;;5092739;28;20027;-79
2023/06/22 12:10:39;;;;;;;3.00;2.70;;;;;;;;;;5094266;28;20031;-78
2023/06/22 12:13:06;;;;;;;6.45;3.20;;;;;;;;;;5099437;28;20023;-78
2023/06/22 12:15:32;;;;;;;4.05;2.70;;;;;;;;;;5097186;28;20085;-79
2023/06/22 12:17:58;;;;;;;2.92;2.60;;;;;;;;;;5093471;28;20043;-79
2023/06/22 12:20:24;;;;;;;3.65;2.88;;;;;;;;;;5099128;28;20028;-78
2023/06/22 12:22:51;;;;;;;3.28;2.97;;;;;;;;;;5100255;28;20019;-78
2023/06/22 12:25:17;;;;;;;4.10;3.70;;;;;;;;;;5094481;28;20024;-79
2023/06/22 12:27:43;;;;;;;3.97;3.45;;;;;;;;;;5103601;28;20023;-78
2023/06/22 12:30:10;;;;;;;5.57;3.45;;;;;;;;;;5102236;28;20032;-77
2023/06/22 12:32:36;;;;;;;4.43;3.40;;;;;;;;;;5103220;28;20469;-80
2023/06/22 12:35:02;;;;;;;5.40;3.75;;;;;;;;;;5101361;28;20065;-77
2023/06/22 12:37:28;;;;;;;6.20;3.75;;;;;;;;;;5099100;28;20505;-78
2023/06/22 12:39:55;;;;;;;5.90;4.20;;;;;;;;;;5097923;28;20051;-78
2023/06/22 12:42:21;;;;;;;5.55;3.78;;;;;;;;;;5094264;28;20039;-79
2023/06/22 12:44:47;;;;;;;5.57;3.90;;;;;;;;;;5097226;28;20643;-77
2023/06/22 12:47:13;;;;;;;6.18;3.90;;;;;;;;;;5098636;28;20035;-79
2023/06/22 12:49:39;;;;;;;6.07;4.28;;;;;;;;;;5094673;28;20225;-78
2023/06/22 12:52:11;;;;;;;7.47;3.67;;;;;;;;;;5097388;28;20066;-78
2023/06/22 12:54:37;;;;;;;5.63;3.70;;;;;;;;;;5100101;28;20797;-77
2023/06/22 12:57:03;;;;;;;4.57;3.90;;;;;;;;;;5100689;28;20030;-77
2023/06/22 12:59:29;;;;;;;4.68;4.18;;;;;;;;;;5096382;28;20085;-78
2023/06/22 13:01:56;;;;;;;6.78;4.03;;;;;;;;;;5097599;28;20032;-77
2023/06/22 13:04:22;;;;;;;4.68;4.05;;;;;;;;;;5096213;28;20034;-77
2023/06/22 13:06:48;;;;;;;4.93;3.88;;;;;;;;;;5097867;28;20027;-77
2023/06/22 13:09:15;;;;;;;6.28;3.88;;;;;;;;;;5102266;28;20028;-77
2023/06/22 13:11:41;;;;;;;5.53;3.47;;;;;;;;;;5083665;28;20031;-78
2023/06/22 13:14:07;;;;;;;4.13;3.70;;;;;;;;;;5097779;28;20024;-78
2023/06/22 13:16:33;;;;;;;5.95;4.18;;;;;;;;;;5103731;28;20032;-77
2023/06/22 13:18:59;;;;;;;6.53;3.92;;;;;;;;;;5104650;27;20506;-77
2023/06/22 13:21:25;;;;;;;4.85;3.60;;;;;;;;;;5102557;28;20497;-79
2023/06/22 13:23:51;;;;;;;4.78;3.67;;;;;;;;;;5102902;28;20024;-78
2023/06/22 13:26:17;;;;;;;7.18;4.03;;;;;;;;;;5096428;28;20829;-77
2023/06/22 13:28:44;;;;;;;4.78;3.60;;;;;;;;;;5103331;28;20076;-80
2023/06/22 13:31:10;;;;;;;4.70;4.15;;;;;;;;;;5101178;28;20031;-79
2023/06/22 13:33:36;;;;;;;5.57;4.18;;;;;;;;;;5105500;28;20045;-78
2023/06/22 13:36:03;;;;;;;7.82;4.45;;;;;;;;;;5119533;28;20019;-82
2023/06/22 13:38:31;;;;;;;6.25;4.47;;;;;;;;;;5114258;28;20099;-79
2023/06/22 13:40:59;;;;;;;7.32;3.88;;;;;;;;;;5105683;28;20079;-79
2023/06/22 13:43:27;;;;;;;5.90;4.13;;;;;;;;;;5107621;28;20051;-78
2023/06/22 13:45:53;;;;;;;4.85;3.97;;;;;;;;;;5103389;28;20104;-80
2023/06/22 13:48:19;;;;;;;5.82;3.97;;;;;;;;;;5095793;28;20035;-79
2023/06/22 13:50:46;;;;;;;6.57;3.70;;;;;;;;;;5094292;28;20051;-79
2023/06/22 13:53:12;;;;;;;4.20;3.80;;;;;;;;;;5095272;28;20032;-79
2023/06/22 13:55:38;;;;;;;5.63;3.67;;;;;;;;;;5093837;28;20032;-78
2023/06/22 13:58:04;;;;;;;4.53;3.70;;;;;;;;;;5096263;28;20039;-77
2023/06/22 14:00:30;;;;;;;5.18;3.88;;;;;;;;;;5100530;28;20127;-78
2023/06/22 14:02:56;;;;;;;5.28;3.55;;;;;;;;;;5095654;28;20333;-78
2023/06/22 14:05:22;;;;;;;6.40;3.95;;;;;;;;;;5096882;28;20089;-77
2023/06/22 14:07:49;;;;;;;3.45;3.15;;;;;;;;;;5099314;28;20406;-79
2023/06/22 14:10:15;;;;;;;4.90;3.85;;;;;;;;;;5095042;28;20038;-79
2023/06/22 14:12:41;;;;;;;3.83;3.20;;;;;;;;;;5099238;28;20883;-77
2023/06/22 14:15:07;;;;;;;5.43;3.38;;;;;;;;;;5080160;28;20073;-79
2023/06/22 14:17:33;;;;;;;4.35;3.58;;;;;;;;;;5095598;28;20072;-80
2023/06/22 14:20:00;;;;;;;5.20;3.70;;;;;;;;;;5095746;28;20314;-79
2023/06/22 14:22:29;;;;;;;6.30;3.10;;;;;;;;;;5104912;28;20023;-78
2023/06/22 14:24:57;;;;;;;4.32;3.35;;;;;;;;;;5098541;28;20028;-78
2023/06/22 14:27:23;;;;;;;5.28;3.70;;;;;;;;;;5096917;28;20027;-79
2023/06/22 14:29:49;;;;;;;5.68;3.50;;;;;;;;;;5097259;28;20031;-77
2023/06/22 14:32:15;;;;;;;4.63;3.70;;;;;;;;;;5096832;28;20088;-78
2023/06/22 14:34:42;;;;;;;6.13;3.53;;;;;;;;;;5093855;28;20477;-78
2023/06/22 14:37:12;;;;;;;4.40;3.28;;;;;;;;;;5094680;28;20377;-77